sensor_id;sensor_type;location;lat;lon;timestamp;pressure;altitude;pressure_sealevel;temperature
18474;BMP180;30265;52.408;13.500;2023-05-07T00:09:36;102543.00;;;14.50
18474;BMP180;30265;52.408;13.500;2023-05-07T00:19:57;102552.00;;;14.50
18474;BMP180;30265;52.408;13.500;2023-05-07T00:30:21;102542.00;;;14.60
18474;BMP180;30265;52.408;13.500;2023-05-07T00:40:44;102534.00;;;14.60
18474;BMP180;30265;52.408;13.500;2023-05-07T00:51:09;102540.00;;;14.60
18474;BMP180;30265;52.408;13.500;2023-05-07T01:01:35;102540.00;;;14.50
18474;BMP180;30265;52.408;13.500;2023-05-07T01:11:59;102535.00;;;14.60
18474;BMP180;30265;52.408;13.500;2023-05-07T01:22:30;102559.00;;;14.50
18474;BMP180;30265;52.408;13.500;2023-05-07T01:32:57;102547.00;;;14.50
18474;BMP180;30265;52.408;13.500;2023-05-07T01:43:26;102539.00;;;14.40
18474;BMP180;30265;52.408;13.500;2023-05-07T01:53:51;102535.00;;;14.40
18474;BMP180;30265;52.408;13.500;2023-05-07T02:04:17;102557.00;;;14.50
18474;BMP180;30265;52.408;13.500;2023-05-07T02:15:16;102567.00;;;14.50
18474;BMP180;30265;52.408;13.500;2023-05-07T02:25:46;102565.00;;;14.50
18474;BMP180;30265;52.408;13.500;2023-05-07T02:36:15;102556.00;;;14.40
18474;BMP180;30265;52.408;13.500;2023-05-07T03:10:18;102592.00;;;14.50
18474;BMP180;30265;52.408;13.500;2023-05-07T03:20:40;102597.00;;;14.30
18474;BMP180;30265;52.408;13.500;2023-05-07T03:31:04;102600.00;;;14.30
18474;BMP180;30265;52.408;13.500;2023-05-07T03:41:32;102602.00;;;14.40
18474;BMP180;30265;52.408;13.500;2023-05-07T03:51:57;102615.00;;;14.30
18474;BMP180;30265;52.408;13.500;2023-05-07T04:02:22;102628.00;;;14.50
18474;BMP180;30265;52.408;13.500;2023-05-07T04:12:46;102623.00;;;14.40
18474;BMP180;30265;52.408;13.500;2023-05-07T04:23:12;102626.00;;;14.30
18474;BMP180;30265;52.408;13.500;2023-05-07T04:33:36;102641.00;;;14.30
18474;BMP180;30265;52.408;13.500;2023-05-07T04:44:01;102647.00;;;14.40
18474;BMP180;30265;52.408;13.500;2023-05-07T04:54:41;102642.00;;;14.50
18474;BMP180;30265;52.408;13.500;2023-05-07T05:05:06;102670.00;;;14.30
18474;BMP180;30265;52.408;13.500;2023-05-07T05:15:34;102662.00;;;14.40
18474;BMP180;30265;52.408;13.500;2023-05-07T05:26:03;102670.00;;;14.70
18474;BMP180;30265;52.408;13.500;2023-05-07T05:36:29;102661.00;;;15.00
18474;BMP180;30265;52.408;13.500;2023-05-07T05:46:51;102674.00;;;14.90
18474;BMP180;30265;52.408;13.500;2023-05-07T05:57:17;102667.00;;;15.30
18474;BMP180;30265;52.408;13.500;2023-05-07T06:07:40;102671.00;;;15.40
18474;BMP180;30265;52.408;13.500;2023-05-07T06:18:05;102673.00;;;15.50
18474;BMP180;30265;52.408;13.500;2023-05-07T06:28:28;102676.00;;;15.70
18474;BMP180;30265;52.408;13.500;2023-05-07T06:39:05;102692.00;;;15.70
18474;BMP180;30265;52.408;13.500;2023-05-07T06:49:29;102707.00;;;15.70
18474;BMP180;30265;52.408;13.500;2023-05-07T06:59:56;102708.00;;;15.80
18474;BMP180;30265;52.408;13.500;2023-05-07T07:10:24;102696.00;;;16.50
18474;BMP180;30265;52.408;13.500;2023-05-07T07:20:50;102696.00;;;16.40
18474;BMP180;30265;52.408;13.500;2023-05-07T07:31:12;102686.00;;;17.50
18474;BMP180;30265;52.408;13.500;2023-05-07T07:41:46;102642.00;;;18.20
18474;BMP180;30265;52.408;13.500;2023-05-07T07:52:26;102645.00;;;18.00
18474;BMP180;30265;52.408;13.500;2023-05-07T08:02:59;102659.00;;;17.30
18474;BMP180;30265;52.408;13.500;2023-05-07T08:13:30;102643.00;;;19.00
18474;BMP180;30265;52.408;13.500;2023-05-07T08:23:55;102650.00;;;18.20
18474;BMP180;30265;52.408;13.500;2023-05-07T08:34:23;102654.00;;;19.00
18474;BMP180;30265;52.408;13.500;2023-05-07T08:45:20;102666.00;;;18.90
18474;BMP180;30265;52.408;13.500;2023-05-07T08:55:45;102664.00;;;18.90
18474;BMP180;30265;52.408;13.500;2023-05-07T09:06:09;102676.00;;;18.30
18474;BMP180;30265;52.408;13.500;2023-05-07T09:16:32;102682.00;;;18.90
18474;BMP180;30265;52.408;13.500;2023-05-07T09:27:00;102674.00;;;19.40
18474;BMP180;30265;52.408;13.500;2023-05-07T09:37:26;102655.00;;;19.20
18474;BMP180;30265;52.408;13.500;2023-05-07T09:47:53;102663.00;;;20.50
18474;BMP180;30265;52.408;13.500;2023-05-07T09:58:18;102691.00;;;19.40
18474;BMP180;30265;52.408;13.500;2023-05-07T10:08:42;102674.00;;;20.10
18474;BMP180;30265;52.408;13.500;2023-05-07T10:19:04;102690.00;;;19.40
18474;BMP180;30265;52.408;13.500;2023-05-07T10:29:37;102685.00;;;20.20
18474;BMP180;30265;52.408;13.500;2023-05-07T10:40:01;102672.00;;;20.40
18474;BMP180;30265;52.408;13.500;2023-05-07T10:50:27;102653.00;;;21.10
18474;BMP180;30265;52.408;13.500;2023-05-07T11:00:57;102653.00;;;22.20
18474;BMP180;30265;52.408;13.500;2023-05-07T11:11:46;102655.00;;;21.30
18474;BMP180;30265;52.408;13.500;2023-05-07T11:22:37;102623.00;;;22.10
18474;BMP180;30265;52.408;13.500;2023-05-07T11:33:25;102591.00;;;23.80
18474;BMP180;30265;52.408;13.500;2023-05-07T11:43:55;102629.00;;;22.00
18474;BMP180;30265;52.408;13.500;2023-05-07T11:54:19;102617.00;;;22.30
18474;BMP180;30265;52.408;13.500;2023-05-07T12:04:41;102633.00;;;21.70
18474;BMP180;30265;52.408;13.500;2023-05-07T12:15:05;102615.00;;;22.30
18474;BMP180;30265;52.408;13.500;2023-05-07T12:25:28;102626.00;;;22.00
18474;BMP180;30265;52.408;13.500;2023-05-07T12:35:55;102614.00;;;23.50
18474;BMP180;30265;52.408;13.500;2023-05-07T12:46:17;102608.00;;;23.60
18474;BMP180;30265;52.408;13.500;2023-05-07T12:56:40;102603.00;;;24.20
18474;BMP180;30265;52.408;13.500;2023-05-07T13:07:02;102618.00;;;22.40
18474;BMP180;30265;52.408;13.500;2023-05-07T13:28:41;102610.00;;;23.30
18474;BMP180;30265;52.408;13.500;2023-05-07T13:39:03;102598.00;;;24.10
18474;BMP180;30265;52.408;13.500;2023-05-07T13:49:28;102606.00;;;23.70
18474;BMP180;30265;52.408;13.500;2023-05-07T13:59:49;102606.00;;;23.70
18474;BMP180;30265;52.408;13.500;2023-05-07T14:10:12;102590.00;;;24.30
18474;BMP180;30265;52.408;13.500;2023-05-07T14:20:35;102635.00;;;22.60
18474;BMP180;30265;52.408;13.500;2023-05-07T14:30:59;102647.00;;;21.60
18474;BMP180;30265;52.408;13.500;2023-05-07T14:41:21;102639.00;;;22.00
18474;BMP180;30265;52.408;13.500;2023-05-07T14:51:45;102631.00;;;21.30
18474;BMP180;30265;52.408;13.500;2023-05-07T15:02:08;102664.00;;;21.30
18474;BMP180;30265;52.408;13.500;2023-05-07T15:12:31;102671.00;;;21.00
18474;BMP180;30265;52.408;13.500;2023-05-07T15:22:53;102634.00;;;22.60
18474;BMP180;30265;52.408;13.500;2023-05-07T15:33:16;102645.00;;;22.40
18474;BMP180;30265;52.408;13.500;2023-05-07T15:43:43;102661.00;;;22.60
18474;BMP180;30265;52.408;13.500;2023-05-07T15:54:07;102663.00;;;23.00
18474;BMP180;30265;52.408;13.500;2023-05-07T16:04:28;102707.00;;;21.00
18474;BMP180;30265;52.408;13.500;2023-05-07T16:14:51;102682.00;;;21.60
18474;BMP180;30265;52.408;13.500;2023-05-07T16:25:13;102675.00;;;21.30
18474;BMP180;30265;52.408;13.500;2023-05-07T16:35:37;102678.00;;;21.70
18474;BMP180;30265;52.408;13.500;2023-05-07T16:45:59;102695.00;;;20.20
18474;BMP180;30265;52.408;13.500;2023-05-07T16:56:21;102708.00;;;20.70
18474;BMP180;30265;52.408;13.500;2023-05-07T17:06:43;102705.00;;;20.70
18474;BMP180;30265;52.408;13.500;2023-05-07T17:17:06;102731.00;;;19.80
18474;BMP180;30265;52.408;13.500;2023-05-07T17:27:28;102740.00;;;19.60
18474;BMP180;30265;52.408;13.500;2023-05-07T17:37:51;102769.00;;;19.30
18474;BMP180;30265;52.408;13.500;2023-05-07T17:48:13;102783.00;;;19.00
18474;BMP180;30265;52.408;13.500;2023-05-07T17:58:37;102787.00;;;18.90
18474;BMP180;30265;52.408;13.500;2023-05-07T18:09:17;102790.00;;;18.60
18474;BMP180;30265;52.408;13.500;2023-05-07T18:19:41;102802.00;;;18.50
18474;BMP180;30265;52.408;13.500;2023-05-07T18:30:03;102815.00;;;18.50
18474;BMP180;30265;52.408;13.500;2023-05-07T18:40:26;102829.00;;;18.40
18474;BMP180;30265;52.408;13.500;2023-05-07T18:50:48;102840.00;;;18.40
18474;BMP180;30265;52.408;13.500;2023-05-07T19:01:11;102850.00;;;18.40
18474;BMP180;30265;52.408;13.500;2023-05-07T19:11:33;102856.00;;;18.30
18474;BMP180;30265;52.408;13.500;2023-05-07T19:21:55;102867.00;;;18.20
18474;BMP180;30265;52.408;13.500;2023-05-07T19:32:17;102885.00;;;18.10
18474;BMP180;30265;52.408;13.500;2023-05-07T19:42:41;102902.00;;;17.50
18474;BMP180;30265;52.408;13.500;2023-05-07T19:53:03;102903.00;;;17.10
18474;BMP180;30265;52.408;13.500;2023-05-07T20:03:26;102934.00;;;16.80
18474;BMP180;30265;52.408;13.500;2023-05-07T20:13:49;102945.00;;;16.50
18474;BMP180;30265;52.408;13.500;2023-05-07T20:24:12;102968.00;;;16.30
18474;BMP180;30265;52.408;13.500;2023-05-07T20:34:33;102980.00;;;16.00
18474;BMP180;30265;52.408;13.500;2023-05-07T20:44:56;102988.00;;;15.90
18474;BMP180;30265;52.408;13.500;2023-05-07T20:55:19;102989.00;;;15.60
18474;BMP180;30265;52.408;13.500;2023-05-07T21:05:49;102996.00;;;15.40
18474;BMP180;30265;52.408;13.500;2023-05-07T21:16:11;103000.00;;;15.20
18474;BMP180;30265;52.408;13.500;2023-05-07T21:26:34;103004.00;;;15.10
18474;BMP180;30265;52.408;13.500;2023-05-07T21:37:05;102990.00;;;15.00
18474;BMP180;30265;52.408;13.500;2023-05-07T21:47:28;103003.00;;;15.10
18474;BMP180;30265;52.408;13.500;2023-05-07T21:57:50;103009.00;;;14.90
18474;BMP180;30265;52.408;13.500;2023-05-07T22:08:26;103024.00;;;14.90
18474;BMP180;30265;52.408;13.500;2023-05-07T22:18:51;103028.00;;;14.70
18474;BMP180;30265;52.408;13.500;2023-05-07T22:29:14;103019.00;;;14.60
18474;BMP180;30265;52.408;13.500;2023-05-07T22:39:36;103045.00;;;14.50
18474;BMP180;30265;52.408;13.500;2023-05-07T22:49:59;103043.00;;;14.40
18474;BMP180;30265;52.408;13.500;2023-05-07T23:00:24;103062.00;;;14.00
18474;BMP180;30265;52.408;13.500;2023-05-07T23:10:47;103044.00;;;13.70
18474;BMP180;30265;52.408;13.500;2023-05-07T23:21:09;103049.00;;;13.70
18474;BMP180;30265;52.408;13.500;2023-05-07T23:31:32;103058.00;;;13.50
18474;BMP180;30265;52.408;13.500;2023-05-07T23:41:53;103059.00;;;13.30
18474;BMP180;30265;52.408;13.500;2023-05-07T23:52:18;103054.00;;;13.10
